sensor_id;sensor_type;location;lat;lon;timestamp;P1;durP1;ratioP1;P2;durP2;ratioP2
67274;SDS011;55463;52.324;5.122;2023-04-05T00:01:06;7.38;;;4.28;;
67274;SDS011;55463;52.324;5.122;2023-04-05T00:03:32;12.38;;;4.65;;
67274;SDS011;55463;52.324;5.122;2023-04-05T00:05:57;10.82;;;4.40;;
67274;SDS011;55463;52.324;5.122;2023-04-05T00:08:26;9.02;;;5.10;;
67274;SDS011;55463;52.324;5.122;2023-04-05T00:10:52;8.20;;;4.22;;
67274;SDS011;55463;52.324;5.122;2023-04-05T00:13:18;8.13;;;4.72;;
67274;SDS011;55463;52.324;5.122;2023-04-05T00:15:45;8.63;;;4.85;;
67274;SDS011;55463;52.324;5.122;2023-04-05T00:18:13;11.60;;;4.82;;
67274;SDS011;55463;52.324;5.122;2023-04-05T00:20:51;10.88;;;4.60;;
67274;SDS011;55463;52.324;5.122;2023-04-05T00:23:18;9.32;;;4.90;;
67274;SDS011;55463;52.324;5.122;2023-04-05T00:25:45;9.15;;;4.80;;
67274;SDS011;55463;52.324;5.122;2023-04-05T00:28:10;7.15;;;4.55;;
67274;SDS011;55463;52.324;5.122;2023-04-05T00:30:36;8.95;;;4.85;;
67274;SDS011;55463;52.324;5.122;2023-04-05T00:33:02;7.60;;;5.00;;
67274;SDS011;55463;52.324;5.122;2023-04-05T00:35:27;10.80;;;5.05;;
67274;SDS011;55463;52.324;5.122;2023-04-05T00:37:54;11.10;;;5.25;;
67274;SDS011;55463;52.324;5.122;2023-04-05T00:40:19;8.05;;;4.68;;
67274;SDS011;55463;52.324;5.122;2023-04-05T00:42:45;8.60;;;4.97;;
67274;SDS011;55463;52.324;5.122;2023-04-05T00:45:12;10.43;;;5.05;;
67274;SDS011;55463;52.324;5.122;2023-04-05T00:47:38;9.20;;;4.32;;
67274;SDS011;55463;52.324;5.122;2023-04-05T00:50:05;10.43;;;5.00;;
67274;SDS011;55463;52.324;5.122;2023-04-05T00:52:32;8.55;;;5.18;;
67274;SDS011;55463;52.324;5.122;2023-04-05T00:54:59;8.55;;;5.22;;
67274;SDS011;55463;52.324;5.122;2023-04-05T00:57:25;13.13;;;5.93;;
67274;SDS011;55463;52.324;5.122;2023-04-05T00:59:50;7.32;;;4.95;;
67274;SDS011;55463;52.324;5.122;2023-04-05T01:02:24;11.13;;;5.80;;
67274;SDS011;55463;52.324;5.122;2023-04-05T01:04:58;6.93;;;4.22;;
67274;SDS011;55463;52.324;5.122;2023-04-05T01:07:30;12.27;;;5.65;;
67274;SDS011;55463;52.324;5.122;2023-04-05T01:10:05;8.77;;;4.90;;
67274;SDS011;55463;52.324;5.122;2023-04-05T01:12:34;11.70;;;5.90;;
67274;SDS011;55463;52.324;5.122;2023-04-05T01:15:01;10.95;;;5.75;;
67274;SDS011;55463;52.324;5.122;2023-04-05T01:17:28;13.68;;;5.60;;
67274;SDS011;55463;52.324;5.122;2023-04-05T01:20:01;12.80;;;5.70;;
67274;SDS011;55463;52.324;5.122;2023-04-05T01:25:26;10.13;;;5.57;;
67274;SDS011;55463;52.324;5.122;2023-04-05T01:28:17;12.30;;;5.47;;
67274;SDS011;55463;52.324;5.122;2023-04-05T01:31:11;11.88;;;5.22;;
67274;SDS011;55463;52.324;5.122;2023-04-05T01:33:48;8.40;;;5.53;;
67274;SDS011;55463;52.324;5.122;2023-04-05T01:36:26;14.23;;;6.20;;
67274;SDS011;55463;52.324;5.122;2023-04-05T01:42:01;8.27;;;5.68;;
67274;SDS011;55463;52.324;5.122;2023-04-05T01:44:27;11.02;;;5.68;;
67274;SDS011;55463;52.324;5.122;2023-04-05T01:46:53;9.18;;;5.30;;
67274;SDS011;55463;52.324;5.122;2023-04-05T01:49:19;13.50;;;6.15;;
67274;SDS011;55463;52.324;5.122;2023-04-05T01:51:45;13.13;;;6.45;;
67274;SDS011;55463;52.324;5.122;2023-04-05T01:54:10;10.20;;;5.40;;
67274;SDS011;55463;52.324;5.122;2023-04-05T01:56:35;14.25;;;6.75;;
67274;SDS011;55463;52.324;5.122;2023-04-05T01:59:01;13.35;;;6.78;;
67274;SDS011;55463;52.324;5.122;2023-04-05T02:01:26;14.32;;;6.18;;
67274;SDS011;55463;52.324;5.122;2023-04-05T02:03:52;13.85;;;7.60;;
67274;SDS011;55463;52.324;5.122;2023-04-05T02:06:17;9.05;;;6.15;;
67274;SDS011;55463;52.324;5.122;2023-04-05T02:08:42;15.30;;;7.20;;
67274;SDS011;55463;52.324;5.122;2023-04-05T02:11:08;15.25;;;7.35;;
67274;SDS011;55463;52.324;5.122;2023-04-05T02:13:33;16.55;;;7.40;;
67274;SDS011;55463;52.324;5.122;2023-04-05T02:15:59;10.23;;;6.57;;
67274;SDS011;55463;52.324;5.122;2023-04-05T02:18:24;11.30;;;6.50;;
67274;SDS011;55463;52.324;5.122;2023-04-05T02:21:04;15.23;;;7.63;;
67274;SDS011;55463;52.324;5.122;2023-04-05T02:26:23;13.60;;;7.95;;
67274;SDS011;55463;52.324;5.122;2023-04-05T02:28:49;14.15;;;8.02;;
67274;SDS011;55463;52.324;5.122;2023-04-05T02:31:14;15.80;;;8.30;;
67274;SDS011;55463;52.324;5.122;2023-04-05T02:33:40;14.50;;;7.72;;
67274;SDS011;55463;52.324;5.122;2023-04-05T02:36:06;15.45;;;7.80;;
67274;SDS011;55463;52.324;5.122;2023-04-05T02:38:33;15.80;;;7.30;;
67274;SDS011;55463;52.324;5.122;2023-04-05T02:40:59;16.77;;;7.95;;
67274;SDS011;55463;52.324;5.122;2023-04-05T02:43:25;14.43;;;8.10;;
67274;SDS011;55463;52.324;5.122;2023-04-05T02:45:51;18.15;;;7.60;;
67274;SDS011;55463;52.324;5.122;2023-04-05T02:48:16;14.00;;;7.00;;
67274;SDS011;55463;52.324;5.122;2023-04-05T02:50:46;10.02;;;6.97;;
67274;SDS011;55463;52.324;5.122;2023-04-05T02:53:15;13.15;;;7.65;;
67274;SDS011;55463;52.324;5.122;2023-04-05T02:55:41;13.48;;;7.65;;
67274;SDS011;55463;52.324;5.122;2023-04-05T02:58:06;12.60;;;8.20;;
67274;SDS011;55463;52.324;5.122;2023-04-05T03:00:32;11.23;;;7.25;;
67274;SDS011;55463;52.324;5.122;2023-04-05T03:02:58;13.23;;;7.00;;
67274;SDS011;55463;52.324;5.122;2023-04-05T03:05:23;14.25;;;6.97;;
67274;SDS011;55463;52.324;5.122;2023-04-05T03:07:49;9.75;;;6.10;;
67274;SDS011;55463;52.324;5.122;2023-04-05T03:10:16;15.93;;;6.55;;
67274;SDS011;55463;52.324;5.122;2023-04-05T03:12:46;10.48;;;6.40;;
67274;SDS011;55463;52.324;5.122;2023-04-05T03:15:12;13.23;;;6.18;;
67274;SDS011;55463;52.324;5.122;2023-04-05T03:17:38;11.40;;;6.35;;
67274;SDS011;55463;52.324;5.122;2023-04-05T03:20:03;11.18;;;6.93;;
67274;SDS011;55463;52.324;5.122;2023-04-05T03:22:33;12.73;;;6.25;;
67274;SDS011;55463;52.324;5.122;2023-04-05T03:24:58;13.63;;;6.18;;
67274;SDS011;55463;52.324;5.122;2023-04-05T03:27:24;14.13;;;6.85;;
67274;SDS011;55463;52.324;5.122;2023-04-05T03:29:50;13.00;;;7.00;;
67274;SDS011;55463;52.324;5.122;2023-04-05T03:32:15;11.68;;;6.05;;
67274;SDS011;55463;52.324;5.122;2023-04-05T03:34:41;15.75;;;6.50;;
67274;SDS011;55463;52.324;5.122;2023-04-05T03:37:07;12.15;;;6.35;;
67274;SDS011;55463;52.324;5.122;2023-04-05T03:39:33;10.23;;;6.47;;
67274;SDS011;55463;52.324;5.122;2023-04-05T03:41:58;9.95;;;6.55;;
67274;SDS011;55463;52.324;5.122;2023-04-05T03:44:23;9.95;;;6.10;;
67274;SDS011;55463;52.324;5.122;2023-04-05T03:46:49;21.48;;;6.35;;
67274;SDS011;55463;52.324;5.122;2023-04-05T03:49:14;12.32;;;6.53;;
67274;SDS011;55463;52.324;5.122;2023-04-05T03:51:40;11.00;;;6.68;;
67274;SDS011;55463;52.324;5.122;2023-04-05T03:54:06;11.38;;;6.18;;
67274;SDS011;55463;52.324;5.122;2023-04-05T03:56:31;10.63;;;6.70;;
67274;SDS011;55463;52.324;5.122;2023-04-05T03:58:57;10.52;;;6.13;;
67274;SDS011;55463;52.324;5.122;2023-04-05T04:01:22;9.50;;;6.28;;
67274;SDS011;55463;52.324;5.122;2023-04-05T04:03:48;10.93;;;6.45;;
67274;SDS011;55463;52.324;5.122;2023-04-05T04:06:13;11.40;;;6.07;;
67274;SDS011;55463;52.324;5.122;2023-04-05T04:08:39;15.40;;;7.43;;
67274;SDS011;55463;52.324;5.122;2023-04-05T04:11:05;12.23;;;6.80;;
67274;SDS011;55463;52.324;5.122;2023-04-05T04:13:31;10.30;;;6.20;;
67274;SDS011;55463;52.324;5.122;2023-04-05T04:15:56;12.23;;;7.45;;
67274;SDS011;55463;52.324;5.122;2023-04-05T04:18:21;13.85;;;6.47;;
67274;SDS011;55463;52.324;5.122;2023-04-05T04:20:47;12.18;;;6.82;;
67274;SDS011;55463;52.324;5.122;2023-04-05T04:23:12;17.65;;;6.70;;
67274;SDS011;55463;52.324;5.122;2023-04-05T04:25:38;9.65;;;6.43;;
67274;SDS011;55463;52.324;5.122;2023-04-05T04:28:05;12.23;;;6.30;;
67274;SDS011;55463;52.324;5.122;2023-04-05T04:30:33;18.63;;;6.95;;
67274;SDS011;55463;52.324;5.122;2023-04-05T04:33:02;13.55;;;6.70;;
67274;SDS011;55463;52.324;5.122;2023-04-05T04:35:31;10.50;;;6.47;;
67274;SDS011;55463;52.324;5.122;2023-04-05T04:38:05;11.43;;;6.40;;
67274;SDS011;55463;52.324;5.122;2023-04-05T04:40:36;13.63;;;6.10;;
67274;SDS011;55463;52.324;5.122;2023-04-05T04:45:43;15.48;;;7.38;;
67274;SDS011;55463;52.324;5.122;2023-04-05T04:48:12;10.68;;;6.60;;
67274;SDS011;55463;52.324;5.122;2023-04-05T04:50:40;10.90;;;6.45;;
67274;SDS011;55463;52.324;5.122;2023-04-05T04:53:09;13.93;;;6.80;;
67274;SDS011;55463;52.324;5.122;2023-04-05T04:55:35;14.02;;;7.00;;
67274;SDS011;55463;52.324;5.122;2023-04-05T04:58:01;14.80;;;6.93;;
67274;SDS011;55463;52.324;5.122;2023-04-05T05:00:38;15.35;;;7.85;;
67274;SDS011;55463;52.324;5.122;2023-04-05T05:03:06;12.23;;;7.50;;
67274;SDS011;55463;52.324;5.122;2023-04-05T05:05:32;15.50;;;7.32;;
67274;SDS011;55463;52.324;5.122;2023-04-05T05:07:57;13.57;;;6.38;;
67274;SDS011;55463;52.324;5.122;2023-04-05T05:10:23;11.07;;;6.70;;
67274;SDS011;55463;52.324;5.122;2023-04-05T05:12:48;14.13;;;7.95;;
67274;SDS011;55463;52.324;5.122;2023-04-05T05:15:13;12.48;;;6.78;;
67274;SDS011;55463;52.324;5.122;2023-04-05T05:17:39;12.52;;;7.20;;
67274;SDS011;55463;52.324;5.122;2023-04-05T05:20:05;19.55;;;7.75;;
67274;SDS011;55463;52.324;5.122;2023-04-05T05:22:35;19.63;;;7.97;;
67274;SDS011;55463;52.324;5.122;2023-04-05T05:25:01;14.70;;;7.20;;
67274;SDS011;55463;52.324;5.122;2023-04-05T05:27:27;14.20;;;7.22;;
67274;SDS011;55463;52.324;5.122;2023-04-05T05:29:53;15.95;;;7.55;;
67274;SDS011;55463;52.324;5.122;2023-04-05T05:32:19;12.75;;;6.97;;
67274;SDS011;55463;52.324;5.122;2023-04-05T05:34:44;15.20;;;7.55;;
67274;SDS011;55463;52.324;5.122;2023-04-05T05:37:12;11.73;;;7.25;;
67274;SDS011;55463;52.324;5.122;2023-04-05T05:39:38;13.65;;;7.50;;
67274;SDS011;55463;52.324;5.122;2023-04-05T05:42:03;14.52;;;7.57;;
67274;SDS011;55463;52.324;5.122;2023-04-05T05:44:29;17.63;;;7.78;;
67274;SDS011;55463;52.324;5.122;2023-04-05T05:46:55;22.08;;;8.90;;
67274;SDS011;55463;52.324;5.122;2023-04-05T05:49:21;13.98;;;7.57;;
67274;SDS011;55463;52.324;5.122;2023-04-05T05:51:47;15.18;;;7.35;;
67274;SDS011;55463;52.324;5.122;2023-04-05T05:54:14;15.13;;;7.53;;
67274;SDS011;55463;52.324;5.122;2023-04-05T05:56:40;14.50;;;8.18;;
67274;SDS011;55463;52.324;5.122;2023-04-05T05:59:05;16.08;;;7.15;;
67274;SDS011;55463;52.324;5.122;2023-04-05T06:01:31;12.60;;;7.38;;
67274;SDS011;55463;52.324;5.122;2023-04-05T06:03:58;14.40;;;7.07;;
67274;SDS011;55463;52.324;5.122;2023-04-05T06:06:24;16.25;;;8.00;;
67274;SDS011;55463;52.324;5.122;2023-04-05T06:08:57;15.40;;;7.95;;
67274;SDS011;55463;52.324;5.122;2023-04-05T06:11:22;14.55;;;6.72;;
67274;SDS011;55463;52.324;5.122;2023-04-05T06:13:49;12.25;;;7.00;;
67274;SDS011;55463;52.324;5.122;2023-04-05T06:16:19;21.35;;;7.45;;
67274;SDS011;55463;52.324;5.122;2023-04-05T06:18:45;15.10;;;7.53;;
67274;SDS011;55463;52.324;5.122;2023-04-05T06:21:11;16.55;;;7.75;;
67274;SDS011;55463;52.324;5.122;2023-04-05T06:23:37;11.15;;;7.28;;
67274;SDS011;55463;52.324;5.122;2023-04-05T06:26:03;17.67;;;7.80;;
67274;SDS011;55463;52.324;5.122;2023-04-05T06:28:28;11.48;;;7.35;;
67274;SDS011;55463;52.324;5.122;2023-04-05T06:30:54;15.10;;;7.97;;
67274;SDS011;55463;52.324;5.122;2023-04-05T06:33:30;17.27;;;7.55;;
67274;SDS011;55463;52.324;5.122;2023-04-05T06:35:56;16.65;;;7.05;;
67274;SDS011;55463;52.324;5.122;2023-04-05T06:38:21;20.30;;;7.88;;
67274;SDS011;55463;52.324;5.122;2023-04-05T06:40:47;13.48;;;6.85;;
67274;SDS011;55463;52.324;5.122;2023-04-05T06:43:27;16.05;;;7.70;;
67274;SDS011;55463;52.324;5.122;2023-04-05T06:45:58;19.23;;;7.78;;
67274;SDS011;55463;52.324;5.122;2023-04-05T06:48:23;11.32;;;7.30;;
67274;SDS011;55463;52.324;5.122;2023-04-05T06:50:55;11.60;;;6.65;;
67274;SDS011;55463;52.324;5.122;2023-04-05T06:53:25;14.32;;;7.63;;
67274;SDS011;55463;52.324;5.122;2023-04-05T06:55:52;15.45;;;8.23;;
67274;SDS011;55463;52.324;5.122;2023-04-05T06:58:21;12.48;;;7.68;;
67274;SDS011;55463;52.324;5.122;2023-04-05T07:00:47;12.98;;;7.53;;
67274;SDS011;55463;52.324;5.122;2023-04-05T07:03:13;13.35;;;6.70;;
67274;SDS011;55463;52.324;5.122;2023-04-05T07:05:38;12.57;;;6.90;;
67274;SDS011;55463;52.324;5.122;2023-04-05T07:08:04;15.80;;;8.05;;
67274;SDS011;55463;52.324;5.122;2023-04-05T07:10:29;13.10;;;7.07;;
67274;SDS011;55463;52.324;5.122;2023-04-05T07:12:55;11.65;;;6.88;;
67274;SDS011;55463;52.324;5.122;2023-04-05T07:15:20;15.85;;;7.28;;
67274;SDS011;55463;52.324;5.122;2023-04-05T07:17:45;14.73;;;7.80;;
67274;SDS011;55463;52.324;5.122;2023-04-05T07:20:11;21.83;;;7.32;;
67274;SDS011;55463;52.324;5.122;2023-04-05T07:22:36;14.00;;;7.70;;
67274;SDS011;55463;52.324;5.122;2023-04-05T07:25:02;14.13;;;8.07;;
67274;SDS011;55463;52.324;5.122;2023-04-05T07:27:28;12.23;;;6.65;;
67274;SDS011;55463;52.324;5.122;2023-04-05T07:29:56;17.08;;;7.32;;
67274;SDS011;55463;52.324;5.122;2023-04-05T07:32:22;10.50;;;6.85;;
67274;SDS011;55463;52.324;5.122;2023-04-05T07:34:47;12.13;;;6.75;;
67274;SDS011;55463;52.324;5.122;2023-04-05T07:37:13;14.48;;;7.03;;
67274;SDS011;55463;52.324;5.122;2023-04-05T07:39:38;10.43;;;6.90;;
67274;SDS011;55463;52.324;5.122;2023-04-05T07:42:04;15.45;;;7.82;;
67274;SDS011;55463;52.324;5.122;2023-04-05T07:44:30;10.55;;;6.82;;
67274;SDS011;55463;52.324;5.122;2023-04-05T07:46:55;9.95;;;6.32;;
67274;SDS011;55463;52.324;5.122;2023-04-05T07:49:24;10.73;;;6.68;;
67274;SDS011;55463;52.324;5.122;2023-04-05T07:51:53;13.55;;;6.78;;
67274;SDS011;55463;52.324;5.122;2023-04-05T07:54:19;11.80;;;6.63;;
67274;SDS011;55463;52.324;5.122;2023-04-05T07:56:45;15.68;;;6.55;;
67274;SDS011;55463;52.324;5.122;2023-04-05T07:59:11;11.75;;;6.68;;
67274;SDS011;55463;52.324;5.122;2023-04-05T08:01:37;12.80;;;7.05;;
67274;SDS011;55463;52.324;5.122;2023-04-05T08:04:02;9.15;;;6.13;;
67274;SDS011;55463;52.324;5.122;2023-04-05T08:06:27;11.95;;;6.55;;
67274;SDS011;55463;52.324;5.122;2023-04-05T08:08:53;8.98;;;5.82;;
67274;SDS011;55463;52.324;5.122;2023-04-05T08:11:18;12.15;;;6.10;;
67274;SDS011;55463;52.324;5.122;2023-04-05T08:13:43;11.73;;;6.28;;
67274;SDS011;55463;52.324;5.122;2023-04-05T08:16:09;15.32;;;6.38;;
67274;SDS011;55463;52.324;5.122;2023-04-05T08:18:35;8.65;;;5.97;;
67274;SDS011;55463;52.324;5.122;2023-04-05T08:21:01;12.77;;;6.05;;
67274;SDS011;55463;52.324;5.122;2023-04-05T08:23:26;12.85;;;6.13;;
67274;SDS011;55463;52.324;5.122;2023-04-05T08:25:52;9.70;;;6.75;;
67274;SDS011;55463;52.324;5.122;2023-04-05T08:28:17;8.43;;;6.13;;
67274;SDS011;55463;52.324;5.122;2023-04-05T08:30:43;10.88;;;5.90;;
67274;SDS011;55463;52.324;5.122;2023-04-05T08:33:09;8.10;;;4.40;;
67274;SDS011;55463;52.324;5.122;2023-04-05T08:35:35;7.40;;;5.20;;
67274;SDS011;55463;52.324;5.122;2023-04-05T08:38:01;8.20;;;4.85;;
67274;SDS011;55463;52.324;5.122;2023-04-05T08:40:45;15.32;;;6.07;;
67274;SDS011;55463;52.324;5.122;2023-04-05T08:43:13;13.68;;;5.93;;
67274;SDS011;55463;52.324;5.122;2023-04-05T08:46:00;14.07;;;6.22;;
67274;SDS011;55463;52.324;5.122;2023-04-05T08:48:26;9.18;;;5.68;;
67274;SDS011;55463;52.324;5.122;2023-04-05T08:50:55;11.20;;;5.75;;
67274;SDS011;55463;52.324;5.122;2023-04-05T08:53:21;12.75;;;6.28;;
67274;SDS011;55463;52.324;5.122;2023-04-05T08:55:50;12.68;;;5.53;;
67274;SDS011;55463;52.324;5.122;2023-04-05T08:58:17;15.05;;;6.32;;
67274;SDS011;55463;52.324;5.122;2023-04-05T09:00:46;8.63;;;5.60;;
67274;SDS011;55463;52.324;5.122;2023-04-05T09:03:13;14.25;;;6.07;;
67274;SDS011;55463;52.324;5.122;2023-04-05T09:05:43;15.23;;;6.32;;
67274;SDS011;55463;52.324;5.122;2023-04-05T09:08:10;17.55;;;5.80;;
67274;SDS011;55463;52.324;5.122;2023-04-05T09:10:37;15.05;;;5.20;;
67274;SDS011;55463;52.324;5.122;2023-04-05T09:13:03;11.07;;;5.13;;
67274;SDS011;55463;52.324;5.122;2023-04-05T09:15:29;9.45;;;5.20;;
67274;SDS011;55463;52.324;5.122;2023-04-05T09:17:55;7.10;;;5.28;;
67274;SDS011;55463;52.324;5.122;2023-04-05T09:20:21;9.68;;;5.70;;
67274;SDS011;55463;52.324;5.122;2023-04-05T09:22:46;9.27;;;5.18;;
67274;SDS011;55463;52.324;5.122;2023-04-05T09:25:32;7.57;;;5.07;;
67274;SDS011;55463;52.324;5.122;2023-04-05T09:27:57;8.20;;;5.05;;
67274;SDS011;55463;52.324;5.122;2023-04-05T09:30:24;9.82;;;5.15;;
67274;SDS011;55463;52.324;5.122;2023-04-05T09:32:52;8.15;;;5.18;;
67274;SDS011;55463;52.324;5.122;2023-04-05T09:35:19;7.63;;;4.90;;
67274;SDS011;55463;52.324;5.122;2023-04-05T09:37:59;10.43;;;5.10;;
67274;SDS011;55463;52.324;5.122;2023-04-05T09:40:44;7.95;;;4.88;;
67274;SDS011;55463;52.324;5.122;2023-04-05T09:43:12;13.00;;;4.70;;
67274;SDS011;55463;52.324;5.122;2023-04-05T09:45:57;9.13;;;4.55;;
67274;SDS011;55463;52.324;5.122;2023-04-05T09:48:24;7.30;;;4.25;;
67274;SDS011;55463;52.324;5.122;2023-04-05T09:51:12;8.25;;;4.75;;
67274;SDS011;55463;52.324;5.122;2023-04-05T09:53:55;9.65;;;5.00;;
67274;SDS011;55463;52.324;5.122;2023-04-05T09:56:22;8.80;;;5.15;;
67274;SDS011;55463;52.324;5.122;2023-04-05T09:58:49;9.15;;;4.75;;
67274;SDS011;55463;52.324;5.122;2023-04-05T10:01:15;9.15;;;4.93;;
67274;SDS011;55463;52.324;5.122;2023-04-05T10:03:47;9.23;;;5.05;;
67274;SDS011;55463;52.324;5.122;2023-04-05T10:06:16;9.82;;;5.15;;
67274;SDS011;55463;52.324;5.122;2023-04-05T10:08:42;11.23;;;5.03;;
67274;SDS011;55463;52.324;5.122;2023-04-05T10:11:07;8.15;;;5.10;;
67274;SDS011;55463;52.324;5.122;2023-04-05T10:13:34;9.65;;;4.70;;
67274;SDS011;55463;52.324;5.122;2023-04-05T10:16:01;7.68;;;4.53;;
67274;SDS011;55463;52.324;5.122;2023-04-05T10:18:32;12.02;;;4.95;;
67274;SDS011;55463;52.324;5.122;2023-04-05T10:21:10;11.88;;;5.35;;
67274;SDS011;55463;52.324;5.122;2023-04-05T10:23:38;9.13;;;4.88;;
67274;SDS011;55463;52.324;5.122;2023-04-05T10:26:20;7.45;;;4.95;;
67274;SDS011;55463;52.324;5.122;2023-04-05T10:28:56;7.97;;;5.30;;
67274;SDS011;55463;52.324;5.122;2023-04-05T10:31:38;7.72;;;4.97;;
67274;SDS011;55463;52.324;5.122;2023-04-05T10:34:13;8.85;;;4.90;;
67274;SDS011;55463;52.324;5.122;2023-04-05T10:36:49;7.22;;;4.90;;
67274;SDS011;55463;52.324;5.122;2023-04-05T10:39:22;7.82;;;5.03;;
67274;SDS011;55463;52.324;5.122;2023-04-05T10:44:27;10.65;;;5.53;;
67274;SDS011;55463;52.324;5.122;2023-04-05T10:46:56;11.65;;;5.18;;
67274;SDS011;55463;52.324;5.122;2023-04-05T10:51:58;8.48;;;5.00;;
67274;SDS011;55463;52.324;5.122;2023-04-05T10:54:25;9.82;;;5.22;;
67274;SDS011;55463;52.324;5.122;2023-04-05T10:56:52;8.18;;;5.18;;
67274;SDS011;55463;52.324;5.122;2023-04-05T10:59:18;21.80;;;5.53;;
67274;SDS011;55463;52.324;5.122;2023-04-05T11:01:44;9.85;;;5.22;;
67274;SDS011;55463;52.324;5.122;2023-04-05T11:04:12;7.13;;;5.00;;
67274;SDS011;55463;52.324;5.122;2023-04-05T11:06:39;11.30;;;5.50;;
67274;SDS011;55463;52.324;5.122;2023-04-05T11:11:44;7.90;;;5.03;;
67274;SDS011;55463;52.324;5.122;2023-04-05T11:14:34;8.85;;;5.10;;
67274;SDS011;55463;52.324;5.122;2023-04-05T11:17:00;13.95;;;5.28;;
67274;SDS011;55463;52.324;5.122;2023-04-05T11:22:29;7.47;;;4.88;;
67274;SDS011;55463;52.324;5.122;2023-04-05T11:24:56;15.45;;;5.88;;
67274;SDS011;55463;52.324;5.122;2023-04-05T11:27:33;15.45;;;5.50;;
67274;SDS011;55463;52.324;5.122;2023-04-05T11:30:02;15.55;;;5.20;;
67274;SDS011;55463;52.324;5.122;2023-04-05T11:32:41;7.53;;;5.43;;
67274;SDS011;55463;52.324;5.122;2023-04-05T11:35:12;9.77;;;5.68;;
67274;SDS011;55463;52.324;5.122;2023-04-05T11:40:35;10.23;;;5.70;;
67274;SDS011;55463;52.324;5.122;2023-04-05T11:43:08;10.88;;;5.82;;
67274;SDS011;55463;52.324;5.122;2023-04-05T11:45:36;10.75;;;5.93;;
67274;SDS011;55463;52.324;5.122;2023-04-05T11:48:03;7.25;;;5.40;;
67274;SDS011;55463;52.324;5.122;2023-04-05T11:50:33;10.55;;;5.30;;
67274;SDS011;55463;52.324;5.122;2023-04-05T11:55:36;7.85;;;5.30;;
67274;SDS011;55463;52.324;5.122;2023-04-05T11:58:10;9.90;;;5.57;;
67274;SDS011;55463;52.324;5.122;2023-04-05T12:00:40;12.07;;;6.03;;
67274;SDS011;55463;52.324;5.122;2023-04-05T12:03:09;8.30;;;5.90;;
67274;SDS011;55463;52.324;5.122;2023-04-05T12:05:48;7.65;;;5.75;;
67274;SDS011;55463;52.324;5.122;2023-04-05T12:08:18;7.82;;;5.45;;
67274;SDS011;55463;52.324;5.122;2023-04-05T12:10:54;8.60;;;5.95;;
67274;SDS011;55463;52.324;5.122;2023-04-05T12:13:24;8.32;;;5.82;;
67274;SDS011;55463;52.324;5.122;2023-04-05T12:18:16;9.00;;;5.72;;
67274;SDS011;55463;52.324;5.122;2023-04-05T12:20:42;10.65;;;6.18;;
67274;SDS011;55463;52.324;5.122;2023-04-05T12:23:08;13.02;;;5.80;;
67274;SDS011;55463;52.324;5.122;2023-04-05T12:25:33;9.75;;;5.90;;
67274;SDS011;55463;52.324;5.122;2023-04-05T12:28:03;9.55;;;5.63;;
67274;SDS011;55463;52.324;5.122;2023-04-05T12:30:29;11.00;;;5.50;;
67274;SDS011;55463;52.324;5.122;2023-04-05T12:33:00;13.02;;;5.32;;
67274;SDS011;55463;52.324;5.122;2023-04-05T12:35:34;9.00;;;5.68;;
67274;SDS011;55463;52.324;5.122;2023-04-05T12:38:01;7.38;;;5.57;;
67274;SDS011;55463;52.324;5.122;2023-04-05T12:40:29;6.75;;;5.90;;
67274;SDS011;55463;52.324;5.122;2023-04-05T12:43:00;11.93;;;5.60;;
67274;SDS011;55463;52.324;5.122;2023-04-05T12:45:28;7.82;;;5.72;;
67274;SDS011;55463;52.324;5.122;2023-04-05T12:47:57;8.80;;;5.82;;
67274;SDS011;55463;52.324;5.122;2023-04-05T12:50:24;9.18;;;5.85;;
67274;SDS011;55463;52.324;5.122;2023-04-05T12:52:57;11.32;;;5.85;;
67274;SDS011;55463;52.324;5.122;2023-04-05T12:55:29;11.18;;;5.80;;
67274;SDS011;55463;52.324;5.122;2023-04-05T12:57:57;8.55;;;6.07;;
67274;SDS011;55463;52.324;5.122;2023-04-05T13:00:24;10.60;;;6.28;;
67274;SDS011;55463;52.324;5.122;2023-04-05T13:02:52;12.93;;;6.40;;
67274;SDS011;55463;52.324;5.122;2023-04-05T13:05:25;10.93;;;5.95;;
67274;SDS011;55463;52.324;5.122;2023-04-05T13:07:52;15.82;;;6.68;;
67274;SDS011;55463;52.324;5.122;2023-04-05T13:10:18;10.10;;;6.43;;
67274;SDS011;55463;52.324;5.122;2023-04-05T13:12:47;12.43;;;6.03;;
67274;SDS011;55463;52.324;5.122;2023-04-05T13:15:16;13.18;;;6.35;;
67274;SDS011;55463;52.324;5.122;2023-04-05T13:17:42;13.80;;;6.55;;
67274;SDS011;55463;52.324;5.122;2023-04-05T13:20:09;10.95;;;6.22;;
67274;SDS011;55463;52.324;5.122;2023-04-05T13:22:36;12.25;;;6.00;;
67274;SDS011;55463;52.324;5.122;2023-04-05T13:25:04;14.68;;;5.82;;
67274;SDS011;55463;52.324;5.122;2023-04-05T13:27:29;9.38;;;6.03;;
67274;SDS011;55463;52.324;5.122;2023-04-05T13:29:55;8.40;;;6.47;;
67274;SDS011;55463;52.324;5.122;2023-04-05T13:32:20;10.45;;;6.80;;
67274;SDS011;55463;52.324;5.122;2023-04-05T13:34:46;9.20;;;6.40;;
67274;SDS011;55463;52.324;5.122;2023-04-05T13:37:12;10.40;;;6.25;;
67274;SDS011;55463;52.324;5.122;2023-04-05T13:39:38;7.97;;;6.03;;
67274;SDS011;55463;52.324;5.122;2023-04-05T13:42:03;10.70;;;6.35;;
67274;SDS011;55463;52.324;5.122;2023-04-05T13:44:29;11.43;;;6.55;;
67274;SDS011;55463;52.324;5.122;2023-04-05T13:46:55;8.05;;;6.00;;
67274;SDS011;55463;52.324;5.122;2023-04-05T13:49:20;8.95;;;6.28;;
67274;SDS011;55463;52.324;5.122;2023-04-05T13:51:46;8.75;;;6.15;;
67274;SDS011;55463;52.324;5.122;2023-04-05T13:54:11;11.23;;;6.70;;
67274;SDS011;55463;52.324;5.122;2023-04-05T13:56:37;8.98;;;6.47;;
67274;SDS011;55463;52.324;5.122;2023-04-05T13:59:02;8.75;;;6.28;;
67274;SDS011;55463;52.324;5.122;2023-04-05T14:01:28;10.73;;;6.00;;
67274;SDS011;55463;52.324;5.122;2023-04-05T14:03:53;11.65;;;6.65;;
67274;SDS011;55463;52.324;5.122;2023-04-05T14:06:19;10.90;;;6.25;;
67274;SDS011;55463;52.324;5.122;2023-04-05T14:08:44;9.90;;;5.97;;
67274;SDS011;55463;52.324;5.122;2023-04-05T14:11:09;9.63;;;5.88;;
67274;SDS011;55463;52.324;5.122;2023-04-05T14:13:35;10.35;;;6.82;;
67274;SDS011;55463;52.324;5.122;2023-04-05T14:16:00;9.65;;;6.13;;
67274;SDS011;55463;52.324;5.122;2023-04-05T14:18:26;8.60;;;6.28;;
67274;SDS011;55463;52.324;5.122;2023-04-05T14:20:51;9.25;;;6.00;;
67274;SDS011;55463;52.324;5.122;2023-04-05T14:23:17;7.72;;;6.32;;
67274;SDS011;55463;52.324;5.122;2023-04-05T14:25:42;7.85;;;6.20;;
67274;SDS011;55463;52.324;5.122;2023-04-05T14:28:08;9.68;;;6.80;;
67274;SDS011;55463;52.324;5.122;2023-04-05T14:30:33;9.52;;;6.50;;
67274;SDS011;55463;52.324;5.122;2023-04-05T14:32:59;13.18;;;6.72;;
67274;SDS011;55463;52.324;5.122;2023-04-05T14:35:24;11.65;;;6.28;;
67274;SDS011;55463;52.324;5.122;2023-04-05T14:37:49;8.93;;;6.13;;
67274;SDS011;55463;52.324;5.122;2023-04-05T14:40:15;12.63;;;6.72;;
67274;SDS011;55463;52.324;5.122;2023-04-05T14:42:40;12.18;;;6.50;;
67274;SDS011;55463;52.324;5.122;2023-04-05T14:45:07;10.02;;;5.95;;
67274;SDS011;55463;52.324;5.122;2023-04-05T14:47:33;11.93;;;6.53;;
67274;SDS011;55463;52.324;5.122;2023-04-05T14:49:59;11.98;;;6.78;;
67274;SDS011;55463;52.324;5.122;2023-04-05T14:52:24;13.75;;;6.82;;
67274;SDS011;55463;52.324;5.122;2023-04-05T14:54:50;10.82;;;6.68;;
67274;SDS011;55463;52.324;5.122;2023-04-05T14:57:18;10.30;;;6.63;;
67274;SDS011;55463;52.324;5.122;2023-04-05T14:59:43;11.80;;;6.78;;
67274;SDS011;55463;52.324;5.122;2023-04-05T15:02:09;11.07;;;7.22;;
67274;SDS011;55463;52.324;5.122;2023-04-05T15:04:35;10.65;;;6.95;;
67274;SDS011;55463;52.324;5.122;2023-04-05T15:07:00;9.70;;;6.78;;
67274;SDS011;55463;52.324;5.122;2023-04-05T15:09:26;8.98;;;6.35;;
67274;SDS011;55463;52.324;5.122;2023-04-05T15:11:51;9.60;;;6.90;;